createdAt,value
2023-04-02T00:01:45.420Z,11.90
2023-04-02T00:04:34.651Z,11.80
2023-04-02T00:07:33.743Z,11.80
2023-04-02T00:10:39.214Z,11.90
2023-04-02T00:13:41.719Z,11.90
2023-04-02T00:16:29.835Z,11.90
2023-04-02T00:19:25.747Z,11.80
2023-04-02T00:22:25.145Z,11.80
2023-04-02T00:25:14.859Z,11.80
2023-04-02T00:28:03.533Z,11.70
2023-04-02T00:31:00.336Z,11.60
2023-04-02T00:33:49.006Z,11.60
2023-04-02T00:36:37.563Z,11.60
2023-04-02T00:39:33.605Z,11.60
2023-04-02T00:42:22.115Z,11.60
2023-04-02T00:45:12.576Z,11.60
2023-04-02T00:48:02.899Z,11.70
2023-04-02T00:50:51.553Z,11.70
2023-04-02T00:53:39.712Z,11.70
2023-04-02T00:56:33.149Z,11.80
2023-04-02T00:59:38.774Z,11.90
2023-04-02T01:02:29.519Z,12.00
2023-04-02T01:05:20.283Z,12.00
2023-04-02T01:08:16.789Z,11.90
2023-04-02T01:11:06.920Z,12.00
2023-04-02T01:14:09.476Z,12.00
2023-04-02T01:17:06.019Z,12.10
2023-04-02T01:20:26.567Z,12.00
2023-04-02T01:23:24.071Z,11.90
2023-04-02T01:26:19.834Z,11.90
2023-04-02T01:29:15.929Z,11.90
2023-04-02T01:32:06.517Z,11.90
2023-04-02T01:34:53.928Z,11.90
2023-04-02T01:37:52.622Z,11.80
2023-04-02T01:40:55.139Z,11.70
2023-04-02T01:43:54.195Z,11.70
2023-04-02T01:46:44.735Z,11.60
2023-04-02T01:49:31.959Z,11.70
2023-04-02T01:52:22.511Z,11.80
2023-04-02T01:55:12.958Z,11.80
2023-04-02T01:58:01.792Z,11.90
2023-04-02T02:00:57.771Z,11.90
2023-04-02T02:03:46.050Z,11.90
2023-04-02T02:06:33.578Z,11.90
2023-04-02T02:09:23.884Z,11.80
2023-04-02T02:12:14.441Z,11.80
2023-04-02T02:15:01.679Z,11.80
2023-04-02T02:17:50.707Z,11.90
2023-04-02T02:20:38.333Z,11.90
2023-04-02T02:23:27.658Z,11.90
2023-04-02T02:26:16.006Z,11.90
2023-04-02T02:29:06.762Z,11.90
2023-04-02T02:31:56.671Z,12.00
2023-04-02T02:34:53.180Z,12.00
2023-04-02T02:37:46.882Z,11.80
2023-04-02T02:40:37.532Z,11.90
2023-04-02T02:43:25.526Z,11.80
2023-04-02T02:46:15.979Z,11.90
2023-04-02T02:49:05.551Z,11.90
2023-04-02T02:52:11.006Z,11.90
2023-04-02T02:55:04.550Z,11.90
2023-04-02T02:57:58.266Z,12.00
2023-04-02T03:00:46.494Z,12.00
2023-04-02T03:03:35.328Z,11.90
2023-04-02T03:06:22.980Z,11.90
2023-04-02T03:09:22.724Z,12.10
2023-04-02T03:12:31.096Z,12.10
2023-04-02T03:15:41.184Z,12.20
2023-04-02T03:18:40.613Z,12.20
2023-04-02T03:21:49.353Z,12.30
2023-04-02T03:24:48.164Z,12.30
2023-04-02T03:27:41.288Z,12.30
2023-04-02T03:30:39.878Z,12.30
2023-04-02T03:33:42.630Z,12.30
2023-04-02T03:36:32.712Z,12.30
2023-04-02T03:39:23.927Z,12.30
2023-04-02T03:42:19.595Z,12.20
2023-04-02T03:45:13.233Z,12.30
2023-04-02T03:48:03.648Z,12.40
2023-04-02T03:51:03.294Z,12.40
2023-04-02T03:53:50.861Z,12.40
2023-04-02T03:56:41.843Z,12.40
2023-04-02T03:59:41.326Z,12.40
2023-04-02T04:02:37.500Z,12.40
2023-04-02T04:05:27.879Z,12.40
2023-04-02T04:08:18.114Z,12.40
2023-04-02T04:11:08.496Z,12.30
2023-04-02T04:14:19.150Z,12.40
2023-04-02T04:17:13.884Z,12.40
2023-04-02T04:20:06.001Z,12.50
2023-04-02T04:22:57.989Z,12.50
2023-04-02T04:25:45.662Z,12.50
2023-04-02T04:28:37.697Z,12.50
2023-04-02T04:31:35.696Z,12.50
2023-04-02T04:34:36.835Z,12.50
2023-04-02T04:37:31.546Z,12.50
2023-04-02T04:40:25.154Z,12.50
2023-04-02T04:43:15.850Z,12.50
2023-04-02T04:46:06.188Z,12.60
2023-04-02T04:49:07.918Z,12.50
2023-04-02T04:52:19.217Z,12.50
2023-04-02T04:55:25.948Z,12.40
2023-04-02T04:58:34.836Z,12.40
2023-04-02T05:01:49.536Z,12.40
2023-04-02T05:04:40.311Z,12.40
2023-04-02T05:07:30.597Z,12.40
2023-04-02T05:10:21.002Z,12.50
2023-04-02T05:13:23.441Z,12.40
2023-04-02T05:16:19.830Z,12.40
2023-04-02T05:19:12.917Z,12.40
2023-04-02T05:22:20.721Z,12.40
2023-04-02T05:25:26.121Z,12.50
2023-04-02T05:28:16.666Z,12.50
2023-04-02T05:31:38.974Z,12.50
2023-04-02T05:34:29.480Z,12.60
2023-04-02T05:37:19.742Z,12.60
2023-04-02T05:40:16.304Z,12.50
2023-04-02T05:43:06.708Z,12.50
2023-04-02T05:46:00.259Z,12.50
2023-04-02T05:48:51.111Z,12.50
2023-04-02T05:51:44.419Z,12.60
2023-04-02T05:54:40.956Z,12.50
2023-04-02T05:57:44.579Z,12.60
2023-04-02T06:00:35.411Z,12.60
2023-04-02T06:03:27.330Z,12.50
2023-04-02T06:06:23.509Z,12.40
2023-04-02T06:09:31.853Z,12.20
2023-04-02T06:12:31.049Z,11.80
2023-04-02T06:15:21.490Z,11.40
2023-04-02T06:18:21.319Z,10.90
2023-04-02T06:21:09.754Z,10.60
2023-04-02T06:24:02.992Z,10.30
2023-04-02T06:26:57.608Z,10.10
2023-04-02T06:29:47.303Z,10.10
2023-04-02T06:32:34.928Z,10.10
2023-04-02T06:35:22.381Z,10.10
2023-04-02T06:38:12.932Z,10.10
2023-04-02T06:41:03.791Z,10.10
2023-04-02T06:44:00.641Z,10.00
2023-04-02T06:46:52.585Z,10.00
2023-04-02T06:49:46.214Z,10.10
2023-04-02T06:52:48.642Z,10.00
2023-04-02T06:55:51.421Z,9.70
2023-04-02T06:58:38.834Z,9.70
2023-04-02T07:01:29.494Z,9.60
2023-04-02T07:04:17.269Z,9.50
2023-04-02T07:07:04.366Z,9.60
2023-04-02T07:09:51.930Z,9.60
2023-04-02T07:12:39.584Z,9.60
2023-04-02T07:15:27.443Z,9.60
2023-04-02T07:18:24.926Z,9.40
2023-04-02T07:21:11.418Z,9.40
2023-04-02T07:23:58.946Z,9.40
2023-04-02T07:26:47.764Z,9.40
2023-04-02T07:29:35.249Z,9.30
2023-04-02T07:32:22.600Z,9.10
2023-04-02T07:35:10.752Z,9.20
2023-04-02T07:37:58.244Z,9.10
2023-04-02T07:40:45.868Z,9.10
2023-04-02T07:43:33.823Z,9.10
2023-04-02T07:46:21.292Z,9.10
2023-04-02T07:49:08.805Z,9.00
2023-04-02T07:51:56.089Z,9.20
2023-04-02T07:54:43.771Z,9.20
2023-04-02T07:57:31.323Z,9.00
2023-04-02T08:00:19.428Z,9.00
2023-04-02T08:03:06.901Z,9.00
2023-04-02T08:05:57.039Z,9.10
2023-04-02T08:08:44.436Z,8.90
2023-04-02T08:11:32.135Z,8.90
2023-04-02T08:14:19.608Z,9.10
2023-04-02T08:17:07.232Z,9.00
2023-04-02T08:19:56.134Z,9.00
2023-04-02T08:22:43.789Z,8.90
2023-04-02T08:25:31.321Z,8.90
2023-04-02T08:28:18.833Z,8.80
2023-04-02T08:31:07.653Z,8.70
2023-04-02T08:33:56.731Z,8.80
2023-04-02T08:36:46.191Z,8.70
2023-04-02T08:39:35.088Z,8.80
2023-04-02T08:42:34.383Z,8.80
2023-04-02T08:45:39.515Z,8.90
2023-04-02T08:48:26.991Z,9.10
2023-04-02T08:51:29.915Z,8.90
2023-04-02T08:54:31.898Z,9.00
2023-04-02T08:57:34.040Z,9.00
2023-04-02T09:00:33.372Z,9.10
2023-04-02T09:03:32.412Z,9.20
2023-04-02T09:06:20.731Z,9.10
2023-04-02T09:09:09.797Z,9.30
2023-04-02T09:12:03.923Z,9.20
2023-04-02T09:15:02.483Z,8.90
2023-04-02T09:17:54.072Z,9.00
2023-04-02T09:20:38.565Z,9.00
2023-04-02T09:23:28.097Z,9.20
2023-04-02T09:26:24.258Z,9.20
2023-04-02T09:29:26.132Z,9.20
2023-04-02T09:32:34.867Z,9.00
2023-04-02T09:35:26.561Z,8.80
2023-04-02T09:38:33.204Z,8.90
2023-04-02T09:41:22.415Z,8.90
2023-04-02T09:44:15.475Z,9.00
2023-04-02T09:47:06.010Z,9.30
2023-04-02T09:49:53.204Z,9.50
2023-04-02T09:52:40.523Z,9.60
2023-04-02T09:55:32.003Z,9.60
2023-04-02T09:58:19.760Z,9.60
2023-04-02T10:01:08.452Z,9.60
2023-04-02T10:03:56.312Z,9.50
2023-04-02T10:06:46.966Z,9.70
2023-04-02T10:09:39.082Z,9.50
2023-04-02T10:12:29.806Z,9.40
2023-04-02T10:15:20.372Z,9.30
2023-04-02T10:18:10.910Z,9.20
2023-04-02T10:21:01.407Z,9.20
2023-04-02T10:23:48.847Z,9.30
2023-04-02T10:26:39.301Z,9.50
2023-04-02T10:29:42.091Z,9.70
2023-04-02T10:32:41.348Z,9.90
2023-04-02T10:35:40.412Z,9.60
2023-04-02T10:38:46.058Z,9.50
2023-04-02T10:41:42.306Z,9.60
2023-04-02T10:44:37.481Z,9.50
2023-04-02T10:47:33.493Z,9.40
2023-04-02T10:50:31.055Z,9.40
2023-04-02T10:53:21.269Z,9.40
2023-04-02T10:56:12.271Z,9.50
2023-04-02T10:59:18.013Z,9.40
2023-04-02T11:02:08.560Z,9.10
2023-04-02T11:05:01.174Z,9.20
2023-04-02T11:08:00.705Z,9.30
2023-04-02T11:10:50.869Z,9.60
2023-04-02T11:13:44.361Z,9.50
2023-04-02T11:16:31.993Z,9.30
2023-04-02T11:19:22.988Z,9.20
2023-04-02T11:22:22.300Z,9.10
2023-04-02T11:25:12.908Z,9.20
2023-04-02T11:28:03.108Z,9.20
2023-04-02T11:30:50.458Z,9.10
2023-04-02T11:33:46.016Z,9.20
2023-04-02T11:36:54.879Z,9.70
2023-04-02T11:39:58.214Z,9.80
2023-04-02T11:42:52.719Z,9.50
2023-04-02T11:45:53.404Z,9.50
2023-04-02T11:48:41.401Z,9.40
2023-04-02T11:51:37.892Z,9.50
2023-04-02T11:54:28.298Z,9.40
2023-04-02T11:57:28.208Z,9.50
2023-04-02T12:00:24.499Z,9.70
2023-04-02T12:03:47.924Z,9.80
2023-04-02T12:07:03.689Z,9.50
2023-04-02T12:10:00.069Z,9.20
2023-04-02T12:12:48.964Z,9.30
2023-04-02T12:15:39.281Z,9.40
2023-04-02T12:18:26.792Z,9.20
2023-04-02T12:21:23.013Z,9.50
2023-04-02T12:24:13.405Z,9.70
2023-04-02T12:27:15.771Z,9.70
2023-04-02T12:30:15.329Z,9.60
2023-04-02T12:33:22.154Z,9.70
2023-04-02T12:36:15.557Z,9.70
2023-04-02T12:39:03.416Z,9.60
2023-04-02T12:41:50.829Z,9.70
2023-04-02T12:44:38.193Z,10.00
2023-04-02T12:47:25.962Z,9.80
2023-04-02T12:50:16.194Z,9.70
2023-04-02T12:53:03.544Z,9.70
2023-04-02T12:55:53.100Z,9.60
2023-04-02T12:58:43.056Z,9.90
2023-04-02T13:01:33.668Z,9.80
2023-04-02T13:04:22.075Z,9.70
2023-04-02T13:07:12.418Z,9.70
2023-04-02T13:10:10.376Z,9.70
2023-04-02T13:13:00.346Z,9.60
2023-04-02T13:15:51.156Z,9.50
2023-04-02T13:18:39.399Z,9.50
2023-04-02T13:21:28.523Z,9.40
2023-04-02T13:24:30.950Z,9.30
2023-04-02T13:27:19.584Z,9.30
2023-04-02T13:30:11.696Z,9.10
2023-04-02T13:32:59.089Z,9.00
2023-04-02T13:35:46.735Z,9.00
2023-04-02T13:38:33.982Z,9.20
2023-04-02T13:41:30.459Z,8.90
2023-04-02T13:44:24.149Z,8.80
2023-04-02T13:47:14.859Z,8.90
2023-04-02T13:50:02.124Z,8.80
2023-04-02T13:52:53.427Z,8.80
2023-04-02T13:55:43.578Z,8.80
2023-04-02T13:58:30.898Z,8.90
2023-04-02T14:01:20.762Z,8.90
2023-04-02T14:04:09.802Z,8.80
2023-04-02T14:07:03.293Z,8.70
2023-04-02T14:10:06.252Z,8.70
2023-04-02T14:13:16.594Z,8.70
2023-04-02T14:16:16.289Z,9.00
2023-04-02T14:19:18.835Z,9.10
2023-04-02T14:22:09.140Z,9.00
2023-04-02T14:25:18.636Z,8.80
2023-04-02T14:28:09.024Z,8.80
2023-04-02T14:30:59.541Z,8.60
2023-04-02T14:33:58.957Z,8.60
2023-04-02T14:37:13.792Z,8.80
2023-04-02T14:40:19.606Z,8.80
2023-04-02T14:43:29.337Z,9.10
2023-04-02T14:46:16.722Z,9.00
2023-04-02T14:49:31.631Z,8.60
2023-04-02T14:52:22.089Z,8.60
2023-04-02T14:55:21.416Z,8.30
2023-04-02T14:58:17.343Z,8.20
2023-04-02T15:01:14.021Z,8.20
2023-04-02T15:04:07.267Z,8.00
2023-04-02T15:06:57.611Z,8.20
2023-04-02T15:09:48.048Z,8.30
2023-04-02T15:12:38.452Z,8.30
2023-04-02T15:15:44.023Z,8.20
2023-04-02T15:18:31.280Z,8.10
2023-04-02T15:21:29.345Z,7.90
2023-04-02T15:24:22.706Z,7.80
2023-04-02T15:27:31.435Z,7.90
2023-04-02T15:30:27.333Z,7.90
2023-04-02T15:33:44.997Z,7.70
2023-04-02T15:36:44.285Z,7.70
2023-04-02T15:39:43.717Z,7.60
2023-04-02T15:42:34.053Z,7.60
2023-04-02T15:45:27.290Z,7.70
2023-04-02T15:48:32.368Z,7.60
2023-04-02T15:51:34.453Z,7.50
2023-04-02T15:54:36.570Z,7.80
2023-04-02T15:57:34.081Z,7.60
2023-04-02T16:00:28.061Z,7.40
2023-04-02T16:03:30.219Z,7.50
2023-04-02T16:06:32.723Z,7.60
2023-04-02T16:09:32.039Z,7.50
2023-04-02T16:12:21.625Z,7.50
2023-04-02T16:15:22.941Z,7.30
2023-04-02T16:18:13.237Z,7.30
2023-04-02T16:21:03.878Z,7.50
2023-04-02T16:23:51.566Z,7.60
2023-04-02T16:26:54.224Z,7.40
2023-04-02T16:30:02.721Z,7.10
2023-04-02T16:33:17.259Z,7.30
2023-04-02T16:36:22.888Z,7.20
2023-04-02T16:39:24.986Z,7.00
2023-04-02T16:42:29.941Z,7.10
2023-04-02T16:45:32.920Z,7.10
2023-04-02T16:48:29.090Z,7.20
2023-04-02T16:51:26.229Z,7.10
2023-04-02T16:54:16.328Z,7.30
2023-04-02T16:57:12.667Z,7.40
2023-04-02T17:00:14.681Z,7.40
2023-04-02T17:03:16.823Z,7.40
2023-04-02T17:06:15.627Z,7.40
2023-04-02T17:09:06.008Z,7.40
2023-04-02T17:12:10.742Z,7.30
2023-04-02T17:15:01.139Z,7.20
2023-04-02T17:17:48.430Z,7.20
2023-04-02T17:20:35.911Z,7.20
2023-04-02T17:23:25.032Z,7.30
2023-04-02T17:26:14.399Z,7.40
2023-04-02T17:29:05.121Z,7.40
2023-04-02T17:31:54.511Z,7.50
2023-04-02T17:34:41.673Z,7.30
2023-04-02T17:37:53.537Z,7.20
2023-04-02T17:40:43.885Z,7.20
2023-04-02T17:43:46.419Z,7.00
2023-04-02T17:46:39.669Z,7.00
2023-04-02T17:49:42.155Z,6.90
2023-04-02T17:52:41.390Z,6.90
2023-04-02T17:55:50.072Z,7.00
2023-04-02T17:59:03.197Z,6.90
2023-04-02T18:01:59.728Z,6.90
2023-04-02T18:04:58.565Z,6.90
2023-04-02T18:08:05.600Z,7.00
2023-04-02T18:10:55.799Z,7.00
2023-04-02T18:13:52.380Z,7.10
2023-04-02T18:16:51.967Z,7.20
2023-04-02T18:19:57.422Z,7.10
2023-04-02T18:22:47.713Z,7.20
2023-04-02T18:25:56.376Z,7.10
2023-04-02T18:29:06.474Z,7.20
2023-04-02T18:32:11.044Z,7.30
2023-04-02T18:35:13.410Z,7.30
2023-04-02T18:38:15.841Z,7.40
2023-04-02T18:41:15.672Z,7.50
2023-04-02T18:44:17.814Z,7.40
2023-04-02T18:47:07.895Z,7.40
2023-04-02T18:50:19.263Z,7.40
2023-04-02T18:53:14.998Z,7.50
2023-04-02T18:56:17.612Z,7.40
2023-04-02T18:59:23.021Z,7.40
2023-04-02T19:02:28.135Z,7.20
2023-04-02T19:05:33.230Z,7.30
2023-04-02T19:08:35.249Z,7.30
2023-04-02T19:11:26.240Z,7.40
2023-04-02T19:14:15.987Z,7.40
2023-04-02T19:17:14.321Z,7.50
2023-04-02T19:20:30.963Z,7.50
2023-04-02T19:23:33.975Z,7.40
2023-04-02T19:26:24.494Z,7.50
2023-04-02T19:29:39.244Z,7.40
2023-04-02T19:32:50.572Z,7.30
2023-04-02T19:35:44.306Z,7.30
2023-04-02T19:38:58.755Z,7.30
2023-04-02T19:41:48.956Z,7.20
2023-04-02T19:44:38.681Z,7.10
2023-04-02T19:47:26.450Z,7.00
2023-04-02T19:50:13.932Z,7.10
2023-04-02T19:53:01.076Z,7.20
2023-04-02T19:55:48.622Z,7.10
2023-04-02T19:58:37.077Z,7.00
2023-04-02T20:01:24.822Z,6.90
2023-04-02T20:04:12.355Z,6.80
2023-04-02T20:06:59.693Z,6.70
2023-04-02T20:09:46.791Z,6.60
2023-04-02T20:12:34.036Z,6.60
2023-04-02T20:15:21.206Z,6.60
2023-04-02T20:18:10.593Z,6.60
2023-04-02T20:20:58.715Z,6.50
2023-04-02T20:23:46.629Z,6.40
2023-04-02T20:26:35.112Z,6.40
2023-04-02T20:29:24.588Z,6.30
2023-04-02T20:32:12.913Z,6.30
2023-04-02T20:35:00.551Z,6.20
2023-04-02T20:37:47.843Z,6.20
2023-04-02T20:40:35.860Z,6.20
2023-04-02T20:43:23.214Z,6.20
2023-04-02T20:46:12.574Z,6.10
2023-04-02T20:49:00.168Z,6.10
2023-04-02T20:51:48.561Z,6.10
2023-04-02T20:54:36.285Z,6.10
2023-04-02T20:57:25.443Z,6.30
2023-04-02T21:00:13.455Z,6.30
2023-04-02T21:03:01.326Z,6.50
2023-04-02T21:05:49.062Z,6.60
2023-04-02T21:08:37.795Z,6.70
2023-04-02T21:11:26.105Z,6.70
2023-04-02T21:14:13.474Z,6.80
2023-04-02T21:17:00.853Z,6.80
2023-04-02T21:19:48.251Z,6.90
2023-04-02T21:22:35.701Z,7.00
2023-04-02T21:25:23.194Z,7.00
2023-04-02T21:28:10.246Z,7.00
2023-04-02T21:31:06.434Z,7.10
2023-04-02T21:33:55.950Z,7.20
2023-04-02T21:36:45.850Z,7.20
2023-04-02T21:39:34.189Z,7.20
2023-04-02T21:42:22.325Z,7.10
2023-04-02T21:45:09.570Z,7.10
2023-04-02T21:47:56.789Z,6.90
2023-04-02T21:50:46.155Z,6.90
2023-04-02T21:53:34.732Z,6.90
2023-04-02T21:56:24.531Z,7.00
2023-04-02T21:59:13.996Z,7.00
2023-04-02T22:02:01.131Z,7.10
2023-04-02T22:04:48.723Z,7.10
2023-04-02T22:07:36.172Z,7.10
2023-04-02T22:10:23.629Z,7.10
2023-04-02T22:13:11.161Z,7.20
2023-04-02T22:16:05.671Z,7.10
2023-04-02T22:18:55.558Z,7.10
2023-04-02T22:21:43.408Z,7.10
2023-04-02T22:24:30.743Z,7.10
2023-04-02T22:27:18.360Z,7.10
2023-04-02T22:30:06.907Z,7.10
2023-04-02T22:32:54.061Z,7.10
2023-04-02T22:35:41.446Z,7.00
2023-04-02T22:38:29.237Z,7.00
2023-04-02T22:41:19.474Z,7.00
2023-04-02T22:44:06.911Z,7.10
2023-04-02T22:46:54.147Z,7.10
2023-04-02T22:49:41.762Z,7.10
2023-04-02T22:52:30.885Z,7.10
2023-04-02T22:55:19.629Z,7.10
2023-04-02T22:58:06.775Z,7.00
2023-04-02T23:00:53.981Z,6.90
2023-04-02T23:03:41.919Z,7.00
2023-04-02T23:06:29.450Z,7.00
2023-04-02T23:09:16.526Z,6.90
2023-04-02T23:12:03.908Z,6.90
2023-04-02T23:14:51.143Z,6.90
2023-04-02T23:17:38.708Z,6.80
2023-04-02T23:20:26.315Z,6.80
2023-04-02T23:23:14.022Z,6.70
2023-04-02T23:26:10.193Z,6.80
2023-04-02T23:28:58.864Z,6.80
2023-04-02T23:31:46.572Z,6.80
2023-04-02T23:34:33.642Z,6.90
2023-04-02T23:37:21.157Z,6.90
2023-04-02T23:40:10.415Z,6.80
2023-04-02T23:42:58.050Z,6.80
2023-04-02T23:45:50.579Z,6.80
2023-04-02T23:48:37.885Z,6.80
2023-04-02T23:51:26.180Z,6.80
2023-04-02T23:54:14.485Z,6.80
2023-04-02T23:57:01.955Z,6.80
2023-04-02T23:59:49.416Z,6.80
